Time;durP1;ratioP1;P1;durP2;ratioP2;P2;SDS_P1;SDS_P2;PMS_P1;PMS_P2;Temp;Humidity;BMP_temperature;BMP_pressure;BME280_temperature;BME280_humidity;BME280_pressure;Samples;Min_cycle;Max_cycle;Signal;HPM_P1;HPM_P2
2023/03/30 00:01:41;;;;;;;9.25;3.08;;;;;;;15.42;59.72;95004.81;5003175;28;20038;-90
2023/03/30 00:04:10;;;;;;;11.63;2.53;;;;;;;15.03;61.35;95003.91;5017720;28;20345;-90
2023/03/30 00:06:38;;;;;;;7.68;2.63;;;;;;;15.03;62.67;94992.59;5018881;28;20037;-91
2023/03/30 00:09:05;;;;;;;12.93;3.40;;;;;;;14.99;64.15;94995.00;5018375;28;20091;-89
2023/03/30 00:11:32;;;;;;;10.23;2.65;;;;;;;15.23;61.34;94997.63;5018369;28;20038;-90
2023/03/30 00:13:58;;;;;;;6.88;2.72;;;;;;;15.39;60.64;95005.38;5005599;28;20136;-89
2023/03/30 00:16:24;;;;;;;10.93;2.80;;;;;;;15.45;59.78;95006.13;5005096;28;20055;-89
2023/03/30 00:18:50;;;;;;;13.38;2.63;;;;;;;15.30;59.31;95007.88;5005558;28;20339;-90
2023/03/30 00:21:19;;;;;;;7.75;2.72;;;;;;;15.38;60.57;95011.75;5001729;28;20034;-90
2023/03/30 00:23:46;;;;;;;12.27;3.22;;;;;;;15.60;59.01;95016.50;5019731;28;20030;-89
2023/03/30 00:26:12;;;;;;;11.02;2.40;;;;;;;15.58;58.97;95021.28;5002220;28;20040;-89
2023/03/30 00:28:37;;;;;;;11.07;2.70;;;;;;;15.65;58.70;95013.81;5002546;28;20116;-90
2023/03/30 00:31:03;;;;;;;11.40;2.75;;;;;;;15.35;59.51;95021.03;5038665;28;20055;-89
2023/03/30 00:33:28;;;;;;;11.18;2.97;;;;;;;15.16;59.86;95015.69;5001895;28;20092;-88
2023/03/30 00:35:56;;;;;;;5.88;2.88;;;;;;;15.23;61.59;95021.41;5021052;28;20075;-89
2023/03/30 00:38:22;;;;;;;9.48;2.58;;;;;;;14.89;62.86;95013.56;5018089;28;20045;-90
2023/03/30 00:40:56;;;;;;;6.93;3.13;;;;;;;15.17;62.94;95013.81;5037371;28;20354;-89
2023/03/30 00:43:22;;;;;;;8.80;3.17;;;;;;;15.38;61.13;95017.81;5017813;28;20104;-89
2023/03/30 00:45:49;;;;;;;7.57;2.53;;;;;;;15.45;59.54;95020.13;5003410;28;20037;-90
2023/03/30 00:48:22;;;;;;;10.13;2.95;;;;;;;15.45;60.25;95014.84;5014136;28;20030;-90
2023/03/30 00:50:51;;;;;;;7.53;2.42;;;;;;;15.59;58.78;95014.94;5022254;28;20120;-90
2023/03/30 00:53:25;;;;;;;12.82;2.38;;;;;;;15.29;60.80;95006.28;5020902;28;20334;-91
2023/03/30 00:55:51;;;;;;;;;;;;;;;15.87;58.66;95012.47;5034855;28;20033;-89
2023/03/30 00:58:17;;;;;;;6.47;2.08;;;;;;;15.67;58.99;95008.22;5009499;28;19913;-90
2023/03/30 01:00:46;;;;;;;15.70;2.88;;;;;;;15.51;59.52;95018.22;5036576;28;20421;-89
2023/03/30 01:03:31;;;;;;;14.18;2.55;;;;;;;15.58;59.70;95017.88;5037530;28;20490;-90
2023/03/30 01:05:59;;;;;;;14.07;2.90;;;;;;;14.69;64.50;95020.56;5025986;28;20044;-89
2023/03/30 01:08:26;;;;;;;12.07;3.47;;;;;;;14.88;63.31;95012.78;5017346;28;20030;-91
2023/03/30 01:10:51;;;;;;;10.40;2.97;;;;;;;14.81;64.77;95009.66;5019804;28;20386;-90
2023/03/30 01:13:18;;;;;;;8.00;2.60;;;;;;;14.87;64.07;95019.13;5017255;28;20033;-90
2023/03/30 01:16:04;;;;;;;11.27;3.13;;;;;;;14.98;64.14;95009.25;5018068;28;20033;-90
2023/03/30 01:18:53;;;;;;;8.38;2.53;;;;;;;15.30;62.83;95004.44;5016270;28;20367;-91
2023/03/30 01:21:40;;;;;;;13.15;2.75;;;;;;;15.19;65.94;95006.41;5004699;28;20390;-89
2023/03/30 01:24:22;;;;;;;6.00;2.72;;;;;;;15.45;64.33;95006.91;5037606;28;20095;-90
2023/03/30 01:26:57;;;;;;;10.02;2.60;;;;;;;15.12;63.93;95010.16;5037738;28;20034;-89
2023/03/30 01:29:38;;;;;;;5.63;2.30;;;;;;;15.55;63.72;95003.38;5001123;28;20036;-89
2023/03/30 01:32:24;;;;;;;9.10;2.40;;;;;;;15.42;65.49;95007.47;5030469;28;20037;-89
2023/03/30 01:35:03;;;;;;;7.93;2.88;;;;;;;15.16;68.86;94999.03;5019461;28;20022;-89
2023/03/30 01:37:41;;;;;;;6.13;2.20;;;;;;;15.53;67.48;95010.78;5037521;28;20064;-89
2023/03/30 01:40:13;;;;;;;7.10;2.03;;;;;;;14.61;74.50;95000.84;5037368;28;20119;-89
2023/03/30 01:42:57;;;;;;;9.90;2.40;;;;;;;15.38;71.39;94994.06;5001713;28;20037;-90
2023/03/30 01:45:43;;;;;;;5.43;2.20;;;;;;;15.31;72.13;94998.09;5016415;28;20034;-90
2023/03/30 01:48:25;;;;;;;8.18;2.38;;;;;;;15.36;71.00;94996.19;5003599;28;20040;-90
2023/03/30 01:50:56;;;;;;;9.05;2.30;;;;;;;14.77;75.37;94985.69;5037178;28;20029;-89
2023/03/30 01:53:30;;;;;;;6.25;1.95;;;;;;;15.24;75.02;95004.50;5016540;28;20447;-89
2023/03/30 01:56:18;;;;;;;7.20;2.03;;;;;;;15.47;71.93;94996.06;5037453;28;20048;-90
2023/03/30 02:02:09;;;;;;;6.38;2.10;;;;;;;14.87;78.03;94984.84;5055148;28;20162;-90
2023/03/30 02:04:44;;;;;;;6.93;2.47;;;;;;;14.87;78.75;94984.03;5021090;28;20037;-89
2023/03/30 02:07:19;;;;;;;11.45;2.20;;;;;;;15.03;75.40;94990.72;5036142;28;20381;-90
2023/03/30 02:09:46;;;;;;;6.13;2.35;;;;;;;15.09;74.58;94981.69;5037510;28;20033;-89
2023/03/30 02:12:12;;;;;;;10.45;2.50;;;;;;;14.57;79.27;94982.16;5056779;28;20334;-88
2023/03/30 02:14:40;;;;;;;6.93;1.92;;;;;;;14.71;79.36;94970.97;5036512;28;20037;-89
2023/03/30 02:17:19;;;;;;;9.00;2.50;;;;;;;14.91;79.26;94979.75;5019809;28;20029;-89
2023/03/30 02:19:45;;;;;;;10.95;2.25;;;;;;;14.97;76.21;94966.25;5037659;28;20029;-90
2023/03/30 02:22:12;;;;;;;5.53;1.63;;;;;;;15.15;74.90;94982.44;5019414;28;20044;-90
2023/03/30 02:24:38;;;;;;;4.75;2.15;;;;;;;14.48;80.79;94975.13;5036343;28;20037;-90
2023/03/30 02:27:04;;;;;;;5.55;2.35;;;;;;;14.38;85.77;94973.38;5019140;28;20033;-89
2023/03/30 02:29:31;;;;;;;8.73;2.75;;;;;;;14.54;84.23;94961.63;5019632;28;20036;-89
2023/03/30 02:31:57;;;;;;;4.05;2.10;;;;;;;14.59;83.43;94963.44;5022824;28;20032;-89
2023/03/30 02:34:56;;;;;;;13.35;2.55;;;;;;;14.61;82.81;94965.78;5039312;28;20037;-89
2023/03/30 02:37:50;;;;;;;8.55;2.20;;;;;;;14.95;78.16;94964.97;5035811;28;20090;-90
2023/03/30 02:40:31;;;;;;;7.85;2.38;;;;;;;15.24;77.74;94966.75;5038851;28;20040;-89
2023/03/30 02:43:09;;;;;;;5.13;2.50;;;;;;;15.02;77.77;94964.63;5038928;28;20131;-91
2023/03/30 02:45:53;;;;;;;6.75;2.60;;;;;;;15.34;75.21;94969.25;5038680;28;20178;-90
2023/03/30 02:48:39;;;;;;;5.97;2.58;;;;;;;15.31;76.72;94971.72;5019185;28;20036;-90
2023/03/30 02:51:18;;;;;;;8.43;3.05;;;;;;;15.49;73.72;94967.50;5019162;28;20029;-89
2023/03/30 02:53:55;;;;;;;4.15;2.20;;;;;;;15.48;72.96;94971.22;5037000;28;20025;-90
2023/03/30 02:56:27;;;;;;;4.65;2.78;;;;;;;15.27;75.15;94966.19;5056106;28;20041;-91
2023/03/30 02:59:39;;;;;;;6.18;2.20;;;;;;;15.24;74.03;94959.63;5029205;28;20087;-90
2023/03/30 03:02:19;;;;;;;11.38;2.70;;;;;;;14.66;80.37;94955.19;5037948;28;20036;-90
2023/03/30 03:04:45;;;;;;;8.98;2.88;;;;;;;14.11;84.20;94949.03;5016835;28;20329;-89
2023/03/30 03:07:11;;;;;;;11.23;2.85;;;;;;;14.59;82.95;94941.53;5008289;28;20402;-90
2023/03/30 03:09:37;;;;;;;6.53;2.47;;;;;;;14.67;78.83;94933.03;5018623;28;20457;-89
2023/03/30 03:12:04;;;;;;;7.03;2.75;;;;;;;14.58;78.63;94935.50;5018946;28;20025;-90
2023/03/30 03:14:30;;;;;;;10.50;2.47;;;;;;;14.63;77.09;94929.34;5018844;28;20051;-90
2023/03/30 03:16:55;;;;;;;11.15;2.83;;;;;;;13.74;84.75;94939.00;5018756;28;20029;-90
2023/03/30 03:19:21;;;;;;;10.45;3.05;;;;;;;14.28;79.26;94932.06;5002489;28;20029;-90
2023/03/30 03:21:50;;;;;;;13.05;2.60;;;;;;;14.64;76.80;94928.31;5018569;28;20036;-90
2023/03/30 03:24:17;;;;;;;13.27;2.88;;;;;;;14.44;76.50;94922.16;5018999;28;20051;-90
2023/03/30 03:26:43;;;;;;;8.40;2.60;;;;;;;14.56;77.94;94919.94;5018804;28;20022;-90
2023/03/30 03:29:12;;;;;;;7.75;2.35;;;;;;;14.80;76.04;94918.41;5001973;28;20156;-90
2023/03/30 03:31:37;;;;;;;10.73;3.10;;;;;;;14.41;76.90;94930.63;5018491;28;20025;-89
2023/03/30 03:34:03;;;;;;;7.97;2.25;;;;;;;14.41;78.49;94941.94;5002580;28;20037;-91
2023/03/30 03:36:29;;;;;;;5.25;2.33;;;;;;;14.70;74.93;94943.03;5002372;28;20033;-91
2023/03/30 03:39:01;;;;;;;10.85;2.78;;;;;;;15.09;72.15;94941.31;5020719;28;20443;-90
2023/03/30 03:41:27;;;;;;;6.90;2.40;;;;;;;14.87;70.32;94936.56;5022242;28;20061;-89
2023/03/30 03:43:52;;;;;;;9.27;2.42;;;;;;;14.77;72.75;94922.38;5006022;28;20127;-90
2023/03/30 03:46:17;;;;;;;8.07;2.33;;;;;;;14.94;70.33;94923.81;5021976;28;20038;-89
2023/03/30 03:48:45;;;;;;;13.13;2.75;;;;;;;15.21;69.54;94920.59;5014762;28;20087;-90
2023/03/30 03:51:11;;;;;;;3.30;2.10;;;;;;;14.98;70.07;94911.63;5035494;28;20371;-90
2023/03/30 03:53:36;;;;;;;8.90;2.60;;;;;;;14.38;72.28;94918.00;5022779;28;20033;-90
2023/03/30 03:56:02;;;;;;;12.90;2.47;;;;;;;13.98;74.92;94924.13;5021570;28;20048;-89
2023/03/30 03:58:28;;;;;;;10.73;2.67;;;;;;;14.54;70.89;94916.78;5022207;28;20029;-90
2023/03/30 04:01:01;;;;;;;6.68;2.10;;;;;;;14.16;72.88;94921.09;5025399;28;20036;-89
2023/03/30 04:03:27;;;;;;;;;;;;;;;14.08;73.35;94896.13;5038615;28;20079;-90
2023/03/30 04:05:52;;;;;;;8.05;2.47;;;;;;;14.31;71.77;94899.06;5024568;28;20015;-89
2023/03/30 04:08:19;;;;;;;8.32;2.45;;;;;;;14.28;69.67;94903.06;5021499;28;20438;-89
2023/03/30 04:10:45;;;;;;;8.00;1.77;;;;;;;14.22;69.80;94894.44;5039903;28;20435;-90
2023/03/30 04:13:10;;;;;;;6.20;2.20;;;;;;;14.01;71.14;94906.97;5038069;28;20462;-90
2023/03/30 04:15:37;;;;;;;10.82;2.65;;;;;;;14.10;70.25;94899.25;5022163;28;20131;-90
2023/03/30 04:18:04;;;;;;;8.30;2.47;;;;;;;14.22;70.26;94899.69;5058913;28;20522;-89
2023/03/30 04:20:29;;;;;;;11.77;2.22;;;;;;;14.40;68.18;94890.28;5021851;28;20123;-90
2023/03/30 04:22:55;;;;;;;7.75;2.10;;;;;;;14.53;68.01;94903.88;5041098;28;20064;-89
2023/03/30 04:25:24;;;;;;;6.22;2.08;;;;;;;14.65;68.16;94892.97;5037625;28;20040;-89
2023/03/30 04:27:57;;;;;;;10.13;2.20;;;;;;;14.61;69.26;94892.75;5040498;28;20221;-91
2023/03/30 04:30:22;;;;;;;13.18;2.35;;;;;;;14.54;68.39;94903.63;5036698;28;20017;-90
2023/03/30 04:33:01;;;;;;;7.47;1.95;;;;;;;14.70;67.74;94906.91;5018645;28;20048;-90
2023/03/30 04:35:27;;;;;;;7.65;1.85;;;;;;;14.74;67.93;94901.84;5007736;28;20032;-89
2023/03/30 04:37:53;;;;;;;9.10;2.00;;;;;;;14.50;69.16;94902.59;5021228;28;20036;-90
2023/03/30 04:40:18;;;;;;;9.45;2.25;;;;;;;14.51;71.60;94904.19;5020858;28;20026;-89
2023/03/30 04:42:48;;;;;;;8.40;2.20;;;;;;;14.40;72.98;94906.09;5021170;28;20080;-88
2023/03/30 04:45:16;;;;;;;7.05;2.40;;;;;;;14.55;70.92;94904.38;5021124;28;20022;-89
2023/03/30 04:47:41;;;;;;;10.77;2.10;;;;;;;14.63;71.99;94892.44;5020959;28;20021;-88
2023/03/30 04:50:08;;;;;;;20.05;2.45;;;;;;;14.15;76.35;94886.03;5003696;28;20450;-90
2023/03/30 04:52:33;;;;;;;12.63;2.45;;;;;;;14.29;77.53;94894.09;5020653;28;20343;-89
2023/03/30 04:54:58;;;;;;;7.22;1.88;;;;;;;14.37;74.08;94901.41;5037349;28;20029;-89
2023/03/30 04:57:24;;;;;;;9.95;2.70;;;;;;;14.26;75.63;94907.81;5021064;28;20041;-88
2023/03/30 04:59:49;;;;;;;6.28;2.55;;;;;;;14.33;73.75;94904.84;5023440;28;20132;-89
2023/03/30 05:02:15;;;;;;;6.35;1.92;;;;;;;14.43;74.39;94907.41;5037288;28;20033;-89
2023/03/30 05:04:41;;;;;;;6.05;2.28;;;;;;;14.39;74.89;94906.41;5039196;28;20060;-89
2023/03/30 05:07:09;;;;;;;7.93;2.35;;;;;;;14.58;73.66;94903.84;5037190;28;20060;-88
2023/03/30 05:09:35;;;;;;;4.15;1.63;;;;;;;14.68;71.06;94911.63;5055131;28;20469;-88
2023/03/30 05:12:02;;;;;;;6.13;2.10;;;;;;;14.57;72.61;94904.91;5036914;28;20044;-90
2023/03/30 05:14:28;;;;;;;7.72;1.98;;;;;;;14.50;73.89;94907.88;5037091;28;20025;-89
2023/03/30 05:16:53;;;;;;;7.05;1.83;;;;;;;14.30;78.52;94902.78;5023533;28;20033;-90
2023/03/30 05:19:18;;;;;;;5.38;1.80;;;;;;;14.26;76.47;94905.19;5020430;28;20067;-91
2023/03/30 05:21:44;;;;;;;6.60;2.17;;;;;;;14.39;78.02;94898.50;5021821;28;20092;-90
2023/03/30 05:24:12;;;;;;;6.28;2.08;;;;;;;14.75;76.37;94903.44;5020297;28;20118;-90
2023/03/30 05:26:37;;;;;;;8.27;1.48;;;;;;;14.68;75.79;94919.56;5037457;28;20339;-89
2023/03/30 05:29:04;;;;;;;11.10;2.45;;;;;;;14.86;73.99;94913.88;5020587;28;20034;-90
2023/03/30 05:31:30;;;;;;;9.48;2.08;;;;;;;14.71;73.14;94918.22;5036451;28;20040;-91
2023/03/30 05:33:56;;;;;;;17.92;1.88;;;;;;;14.32;77.71;94919.91;5036578;28;20029;-90
2023/03/30 05:36:21;;;;;;;6.80;2.00;;;;;;;14.75;74.69;94921.13;5020183;28;20036;-88
2023/03/30 05:38:46;;;;;;;8.98;2.33;;;;;;;14.50;75.27;94909.72;5022762;28;20052;-90
2023/03/30 05:41:12;;;;;;;7.82;1.92;;;;;;;14.28;77.48;94914.38;5036431;28;20052;-90
2023/03/30 05:43:38;;;;;;;6.45;2.05;;;;;;;14.26;78.95;94913.09;5020811;28;20025;-90
2023/03/30 05:46:04;;;;;;;5.38;2.05;;;;;;;14.17;79.24;94904.22;5035926;28;20037;-89
2023/03/30 05:48:30;;;;;;;10.13;1.90;;;;;;;14.50;77.96;94892.06;5030992;28;20514;-89
2023/03/30 05:50:56;;;;;;;9.77;2.20;;;;;;;14.65;78.99;94890.34;5020396;28;20080;-89
2023/03/30 05:53:21;;;;;;;8.88;1.90;;;;;;;14.52;76.22;94895.19;5000454;28;20339;-90
2023/03/30 05:55:48;;;;;;;7.97;2.35;;;;;;;14.87;75.20;94897.78;5018451;28;20450;-90
2023/03/30 05:58:15;;;;;;;7.18;2.00;;;;;;;15.09;72.69;94897.25;5016469;28;20075;-90
2023/03/30 06:00:42;;;;;;;7.43;1.90;;;;;;;15.13;72.98;94908.00;5017054;28;20457;-89
2023/03/30 06:03:08;;;;;;;6.22;1.65;;;;;;;14.95;72.24;94899.78;5000457;28;20334;-90
2023/03/30 06:05:35;;;;;;;10.30;2.33;;;;;;;14.92;75.83;94904.81;5016350;28;20034;-90
2023/03/30 06:08:00;;;;;;;13.88;2.35;;;;;;;14.89;72.96;94908.03;5016308;28;20033;-90
2023/03/30 06:10:26;;;;;;;7.18;2.00;;;;;;;15.44;71.15;94898.94;5016196;28;20324;-89
2023/03/30 06:12:52;;;;;;;8.82;2.13;;;;;;;15.12;71.99;94899.31;5002935;28;20083;-90
2023/03/30 06:15:18;;;;;;;5.63;1.58;;;;;;;16.01;68.70;94904.22;4999571;28;20029;-90
2023/03/30 06:17:43;;;;;;;5.28;1.83;;;;;;;16.30;67.63;94902.44;5034962;28;20385;-89
2023/03/30 06:20:11;;;;;;;3.42;1.48;;;;;;;16.66;65.88;94899.19;4999919;28;20032;-89
2023/03/30 06:22:37;;;;;;;4.38;2.10;;;;;;;16.76;64.56;94906.16;5016915;28;20072;-90
2023/03/30 06:25:03;;;;;;;8.35;1.58;;;;;;;17.23;62.98;94912.16;5018206;28;20025;-89
2023/03/30 06:27:31;;;;;;;7.35;1.90;;;;;;;17.50;62.13;94910.53;5019337;28;20079;-89
2023/03/30 06:29:57;;;;;;;8.43;2.45;;;;;;;17.50;60.64;94909.75;5016210;28;20132;-89
2023/03/30 06:32:22;;;;;;;6.80;1.50;;;;;;;17.08;66.75;94917.75;5016023;28;20124;-89
2023/03/30 06:34:48;;;;;;;3.95;1.60;;;;;;;17.55;61.57;94914.94;5035818;28;20021;-91
2023/03/30 06:37:14;;;;;;;4.60;1.45;;;;;;;18.12;60.08;94900.44;5019129;28;20029;-89
2023/03/30 06:39:39;;;;;;;4.00;1.67;;;;;;;18.18;61.57;94909.84;5017034;28;20041;-90
2023/03/30 06:42:05;;;;;;;4.70;1.63;;;;;;;17.71;62.17;94915.38;4999685;28;20026;-89
2023/03/30 06:44:31;;;;;;;8.43;1.40;;;;;;;17.91;62.68;94906.19;5016187;28;20034;-89
2023/03/30 06:46:56;;;;;;;8.32;1.85;;;;;;;18.19;59.77;94905.34;5015898;28;20382;-89
2023/03/30 06:49:22;;;;;;;4.18;1.38;;;;;;;18.36;59.50;94909.94;5015874;28;20108;-89
2023/03/30 06:51:47;;;;;;;7.47;1.58;;;;;;;18.53;58.55;94906.59;5001563;28;20415;-90
2023/03/30 06:54:13;;;;;;;3.28;1.30;;;;;;;18.54;57.80;94915.38;4999056;28;20025;-89
2023/03/30 06:56:38;;;;;;;4.88;1.30;;;;;;;18.27;58.17;94915.19;5000370;28;20444;-90
2023/03/30 06:59:04;;;;;;;4.35;1.25;;;;;;;18.30;59.14;94914.63;5015542;28;20052;-90
2023/03/30 07:01:30;;;;;;;8.80;1.63;;;;;;;18.41;59.19;94920.44;5015543;28;20033;-89
2023/03/30 07:03:56;;;;;;;6.93;1.55;;;;;;;18.62;56.83;94923.38;4999272;28;20026;-89
2023/03/30 07:06:21;;;;;;;6.07;1.30;;;;;;;18.92;56.19;94934.28;5015686;28;20026;-89
2023/03/30 07:08:47;;;;;;;6.40;1.10;;;;;;;19.10;56.35;94929.03;5001761;28;20440;-89
2023/03/30 07:11:13;;;;;;;3.83;1.30;;;;;;;19.15;56.06;94922.81;5018860;28;20061;-89
2023/03/30 07:13:38;;;;;;;2.83;1.20;;;;;;;18.93;56.27;94927.88;5035007;28;20076;-90
2023/03/30 07:16:04;;;;;;;11.20;1.08;;;;;;;19.31;56.03;94929.25;5019142;28;20030;-90
2023/03/30 07:18:30;;;;;;;4.15;0.85;;;;;;;19.18;56.82;94938.94;5019213;28;20030;-89
2023/03/30 07:20:58;;;;;;;5.43;1.30;;;;;;;19.21;57.36;94938.31;5019292;28;20030;-90
2023/03/30 07:23:23;;;;;;;3.95;1.10;;;;;;;19.01;57.86;94931.69;5019387;28;20320;-89
2023/03/30 07:25:50;;;;;;;5.15;1.30;;;;;;;18.17;61.21;94936.69;5038391;28;20034;-90
2023/03/30 07:28:15;;;;;;;4.28;1.52;;;;;;;19.24;56.66;94947.53;5019061;28;20351;-89
2023/03/30 07:30:41;;;;;;;2.40;1.05;;;;;;;19.36;57.18;94947.72;5004300;28;20036;-90
2023/03/30 07:33:06;;;;;;;3.67;1.10;;;;;;;18.15;59.07;94952.09;5006278;28;20431;-89
2023/03/30 07:35:32;;;;;;;3.03;1.08;;;;;;;17.67;62.99;94948.88;5019574;28;20030;-90
2023/03/30 07:38:02;;;;;;;4.57;1.08;;;;;;;18.99;59.64;94949.78;5019115;28;20033;-89
2023/03/30 07:40:28;;;;;;;6.80;1.10;;;;;;;18.66;59.23;94942.13;5002811;28;20079;-90
2023/03/30 07:42:53;;;;;;;10.80;1.02;;;;;;;18.60;60.95;94946.78;5022043;28;20120;-90
2023/03/30 07:45:19;;;;;;;2.55;0.90;;;;;;;18.92;57.64;94946.75;5018449;28;20328;-91
2023/03/30 07:47:44;;;;;;;4.85;1.27;;;;;;;19.34;56.25;94955.19;5020746;28;20033;-89
2023/03/30 07:50:10;;;;;;;2.13;1.08;;;;;;;19.10;58.14;94954.84;5035218;28;20036;-89
2023/03/30 07:52:35;;;;;;;3.33;0.98;;;;;;;19.31;57.37;94936.47;5019546;28;20021;-91
2023/03/30 07:55:01;;;;;;;4.13;0.93;;;;;;;19.55;57.56;94943.22;5002272;28;20036;-90
2023/03/30 07:57:26;;;;;;;1.58;0.88;;;;;;;19.29;55.78;94942.06;5002643;28;20125;-91
2023/03/30 07:59:52;;;;;;;6.22;1.10;;;;;;;19.88;54.30;94943.56;5004186;28;20025;-89
2023/03/30 08:02:17;;;;;;;2.63;0.88;;;;;;;20.14;52.36;94958.78;5018552;28;20026;-90
2023/03/30 08:04:43;;;;;;;3.10;0.88;;;;;;;20.18;52.01;94956.28;5003808;28;20030;-92
2023/03/30 08:07:10;;;;;;;1.65;0.88;;;;;;;19.34;53.89;94957.09;5018604;28;20108;-92
2023/03/30 08:09:36;;;;;;;2.53;0.77;;;;;;;19.81;54.28;94950.44;5018898;28;20490;-91
2023/03/30 08:12:02;;;;;;;6.28;1.25;;;;;;;20.43;53.71;94953.88;5021751;28;20133;-91
2023/03/30 08:14:27;;;;;;;6.22;0.93;;;;;;;20.80;52.40;94961.47;5002054;28;20025;-90
2023/03/30 08:16:54;;;;;;;3.97;1.13;;;;;;;21.02;50.96;94947.19;5021128;28;20048;-90
2023/03/30 08:19:21;;;;;;;4.18;1.20;;;;;;;21.01;53.29;94953.59;5018211;28;20022;-90
2023/03/30 08:21:46;;;;;;;3.40;1.00;;;;;;;20.97;53.22;94956.13;5020284;28;20028;-90
2023/03/30 08:24:13;;;;;;;4.30;1.10;;;;;;;20.60;51.35;94945.88;5001510;28;20025;-91
2023/03/30 08:26:38;;;;;;;4.82;1.30;;;;;;;20.99;51.83;94951.28;5019046;28;20025;-91
2023/03/30 08:29:03;;;;;;;4.05;1.10;;;;;;;21.44;49.51;94943.84;5001796;28;20032;-91
2023/03/30 08:31:31;;;;;;;6.90;1.15;;;;;;;20.87;52.42;94943.97;5017744;28;20038;-91
2023/03/30 08:33:57;;;;;;;4.10;1.35;;;;;;;21.52;48.98;94940.38;5013811;28;20320;-90
2023/03/30 08:36:23;;;;;;;5.97;1.73;;;;;;;21.02;48.13;94941.88;5021121;28;20457;-91
2023/03/30 08:38:49;;;;;;;5.65;1.33;;;;;;;21.30;48.45;94939.53;5020068;28;20030;-91
2023/03/30 08:41:27;;;;;;;5.75;1.33;;;;;;;21.33;48.53;94935.44;5017629;28;20030;-91
2023/03/30 08:44:24;;;;;;;3.40;1.20;;;;;;;21.08;50.07;94950.44;5020633;28;20082;-89
2023/03/30 08:46:51;;;;;;;6.75;1.30;;;;;;;21.08;48.84;94953.09;5008878;28;20376;-90
2023/03/30 08:49:18;;;;;;;7.45;1.10;;;;;;;20.83;51.32;94942.25;5017694;28;20029;-90
2023/03/30 08:51:45;;;;;;;8.48;1.50;;;;;;;21.37;49.29;94933.69;5002657;28;20133;-90
2023/03/30 08:54:24;;;;;;;4.72;1.27;;;;;;;21.54;47.20;94937.34;5017591;28;20030;-91
2023/03/30 08:57:12;;;;;;;10.20;1.42;;;;;;;21.49;49.73;94938.31;5020179;28;20030;-91
2023/03/30 08:59:43;;;;;;;5.88;1.60;;;;;;;20.51;50.95;94931.00;5001936;28;20347;-90
2023/03/30 09:02:22;;;;;;;7.72;1.42;;;;;;;21.98;49.15;94932.53;5038233;28;20032;-90
2023/03/30 09:05:09;;;;;;;8.02;1.30;;;;;;;22.14;48.15;94929.25;5020514;28;20099;-91
2023/03/30 09:07:40;;;;;;;3.88;0.95;;;;;;;21.79;46.29;94924.22;5017652;28;20351;-90
2023/03/30 09:10:16;;;;;;;10.45;1.33;;;;;;;23.14;45.33;94919.59;5001271;28;20037;-91
2023/03/30 09:12:48;;;;;;;3.78;0.80;;;;;;;22.81;46.49;94920.44;5036743;28;20064;-91
2023/03/30 09:15:16;;;;;;;2.67;1.17;;;;;;;23.79;42.81;94918.09;5017107;28;20032;-92
2023/03/30 09:17:46;;;;;;;4.95;0.93;;;;;;;23.33;42.55;94908.38;5035964;28;20044;-92
2023/03/30 09:20:22;;;;;;;4.80;1.45;;;;;;;22.91;43.77;94920.00;5017139;28;20030;-91
2023/03/30 09:22:48;;;;;;;3.35;1.30;;;;;;;23.80;42.33;94917.72;5019221;28;20088;-92
2023/03/30 09:25:34;;;;;;;2.95;1.02;;;;;;;23.53;41.34;94921.91;5020083;28;20037;-91
2023/03/30 09:28:24;;;;;;;2.13;0.90;;;;;;;23.20;43.59;94915.56;5019406;28;20025;-94
2023/03/30 09:31:07;;;;;;;5.38;0.98;;;;;;;23.24;42.67;94903.09;5025974;28;20026;-91
2023/03/30 09:33:59;;;;;;;4.10;1.17;;;;;;;23.86;41.40;94910.25;5004320;28;20034;-92
2023/03/30 09:36:41;;;;;;;4.60;0.95;;;;;;;24.34;41.71;94915.00;4999020;28;20071;-90
2023/03/30 09:39:20;;;;;;;4.20;0.80;;;;;;;23.37;40.83;94908.44;5019614;28;20343;-91
2023/03/30 09:42:24;;;;;;;2.97;0.90;;;;;;;23.88;41.16;94910.69;5019820;28;20029;-90
2023/03/30 09:44:59;;;;;;;5.00;1.03;;;;;;;23.45;42.03;94910.22;5037326;28;20057;-92
2023/03/30 09:47:36;;;;;;;3.55;1.00;;;;;;;23.75;39.43;94915.28;5003708;28;20274;-91
2023/03/30 09:50:21;;;;;;;3.28;1.25;;;;;;;23.25;41.42;94915.34;4996587;28;20037;-90
2023/03/30 09:52:54;;;;;;;4.82;1.05;;;;;;;23.53;38.77;94914.69;5019913;28;20031;-91
2023/03/30 09:55:22;;;;;;;4.13;1.20;;;;;;;23.48;39.11;94914.91;5016500;28;20129;-90
2023/03/30 09:57:49;;;;;;;2.75;1.02;;;;;;;24.50;38.04;94915.03;5036502;28;20021;-91
2023/03/30 10:00:32;;;;;;;4.97;1.10;;;;;;;23.98;38.64;94907.53;5000562;28;20026;-91
2023/03/30 10:03:01;;;;;;;4.13;1.20;;;;;;;24.88;39.25;94907.56;5007932;28;20068;-90
2023/03/30 10:05:27;;;;;;;5.93;1.10;;;;;;;24.40;38.23;94914.41;5023053;28;20037;-92
2023/03/30 10:07:54;;;;;;;5.93;1.13;;;;;;;25.01;39.11;94902.91;5023279;28;20029;-90
2023/03/30 10:10:19;;;;;;;1.58;0.88;;;;;;;24.69;37.46;94899.06;5019451;28;20079;-91
2023/03/30 10:12:47;;;;;;;2.58;1.08;;;;;;;23.32;40.17;94890.75;5037902;28;20060;-90
2023/03/30 10:15:17;;;;;;;6.78;1.50;;;;;;;23.04;42.51;94888.75;5035979;28;20044;-90
2023/03/30 10:17:45;;;;;;;7.20;1.40;;;;;;;23.31;43.94;94889.19;5021169;28;20029;-90
2023/03/30 10:20:35;;;;;;;5.03;1.25;;;;;;;23.93;40.16;94881.03;5035908;28;20133;-90
2023/03/30 10:23:12;;;;;;;5.43;1.10;;;;;;;23.85;42.61;94885.41;5023122;28;20070;-90
2023/03/30 10:25:40;;;;;;;8.15;1.17;;;;;;;22.66;42.03;94893.25;5038847;28;20054;-88
2023/03/30 10:28:16;;;;;;;6.28;1.10;;;;;;;23.49;41.50;94892.38;5019288;28;20482;-89
2023/03/30 10:30:55;;;;;;;6.53;1.20;;;;;;;23.65;40.44;94907.72;5020869;28;20065;-92
2023/03/30 10:33:21;;;;;;;7.78;1.05;;;;;;;22.84;43.36;94898.44;5019294;28;20124;-90
2023/03/30 10:35:52;;;;;;;5.07;1.45;;;;;;;22.72;43.76;94891.94;5037729;28;20120;-89
2023/03/30 10:38:18;;;;;;;7.78;1.55;;;;;;;22.09;44.31;94900.88;5019494;28;20037;-90
2023/03/30 10:40:44;;;;;;;3.55;1.00;;;;;;;23.50;43.59;94901.22;5037146;28;20496;-90
2023/03/30 10:43:21;;;;;;;3.53;1.20;;;;;;;23.03;41.48;94887.19;5056434;28;20036;-92
2023/03/30 10:45:48;;;;;;;3.88;1.00;;;;;;;23.63;42.54;94880.56;5021044;28;20029;-90
2023/03/30 10:48:30;;;;;;;5.63;1.40;;;;;;;24.12;42.72;94871.59;5038374;28;20037;-91
2023/03/30 10:51:13;;;;;;;5.53;1.33;;;;;;;23.94;39.24;94860.38;5039927;28;20446;-91
2023/03/30 10:53:42;;;;;;;;;;;;;;;23.33;41.74;94851.44;5041109;28;20033;-90
2023/03/30 10:56:30;;;;;;;5.00;1.98;;;;;;;23.12;48.04;94855.78;5039894;28;19995;-90
2023/03/30 10:59:13;;;;;;;5.25;1.63;;;;;;;22.74;43.80;94871.03;5026529;28;20029;-90
2023/03/30 11:01:59;;;;;;;5.82;1.83;;;;;;;23.18;41.20;94868.94;5060479;28;20029;-91
2023/03/30 11:04:29;;;;;;;3.22;1.40;;;;;;;23.65;41.79;94881.00;5039417;28;20437;-90
2023/03/30 11:06:56;;;;;;;3.92;1.08;;;;;;;24.33;39.44;94875.97;5042898;28;20028;-89
2023/03/30 11:09:26;;;;;;;4.03;1.60;;;;;;;23.28;38.92;94868.47;5023128;28;20415;-91
2023/03/30 11:11:56;;;;;;;5.05;2.05;;;;;;;23.51;44.67;94855.38;5025847;28;20350;-87
2023/03/30 11:14:25;;;;;;;8.63;1.35;;;;;;;23.57;34.62;94854.06;5022920;28;20037;-87
2023/03/30 11:17:02;;;;;;;2.78;1.05;;;;;;;23.21;32.77;94846.88;5009513;28;20346;-87
2023/03/30 11:19:38;;;;;;;5.97;1.50;;;;;;;22.21;31.89;94862.00;5039074;28;20032;-87
2023/03/30 11:22:12;;;;;;;3.22;1.27;;;;;;;21.42;30.83;94852.78;5026292;28;20107;-91
2023/03/30 11:24:40;;;;;;;5.35;1.17;;;;;;;23.05;31.36;94849.44;5042171;28;20037;-90
2023/03/30 11:27:09;;;;;;;4.85;1.38;;;;;;;22.11;33.70;94837.31;5022610;28;20064;-90
2023/03/30 11:29:47;;;;;;;5.78;1.98;;;;;;;21.71;43.66;94856.50;5039470;28;20084;-89
2023/03/30 11:32:33;;;;;;;7.70;1.83;;;;;;;23.30;43.15;94845.66;5039005;28;20083;-91
2023/03/30 11:35:03;;;;;;;7.00;3.00;;;;;;;23.79;45.10;94846.63;5042310;28;20028;-91
2023/03/30 11:37:56;;;;;;;7.57;3.15;;;;;;;23.98;41.17;94831.84;5042191;28;20029;-90
2023/03/30 11:40:27;;;;;;;9.30;1.40;;;;;;;20.93;31.88;94819.38;5042138;28;20033;-89
2023/03/30 11:42:54;;;;;;;2.45;1.00;;;;;;;20.61;33.06;94818.88;5041921;28;20035;-90
2023/03/30 11:45:29;;;;;;;4.32;1.23;;;;;;;21.02;32.44;94804.13;5038527;28;20355;-91
2023/03/30 11:48:19;;;;;;;6.00;1.13;;;;;;;21.29;30.81;94804.72;5041898;28;20503;-89
2023/03/30 11:51:14;;;;;;;2.83;1.10;;;;;;;20.59;31.70;94784.63;5040823;28;20525;-90